createdAt,value
2023-03-22T00:02:18.579Z,8.97
2023-03-22T00:04:46.921Z,7.53
2023-03-22T00:07:15.065Z,7.30
2023-03-22T00:09:43.308Z,7.13
2023-03-22T00:12:11.462Z,7.50
2023-03-22T00:14:41.376Z,8.07
2023-03-22T00:17:09.644Z,7.17
2023-03-22T00:19:37.913Z,6.93
2023-03-22T00:22:06.878Z,6.97
2023-03-22T00:24:35.059Z,6.70
2023-03-22T00:27:03.463Z,6.53
2023-03-22T00:29:31.687Z,7.20
2023-03-22T00:32:01.174Z,6.27
2023-03-22T00:34:32.411Z,6.47
2023-03-22T00:37:00.821Z,6.20
2023-03-22T00:39:29.013Z,6.23
2023-03-22T00:41:57.147Z,6.30
2023-03-22T00:44:25.468Z,5.80
2023-03-22T00:46:53.612Z,5.90
2023-03-22T00:49:23.532Z,5.80
2023-03-22T00:51:51.879Z,5.90
2023-03-22T00:54:20.244Z,5.30
2023-03-22T00:56:49.928Z,5.80
2023-03-22T00:59:18.169Z,5.73
2023-03-22T01:01:46.349Z,6.27
2023-03-22T01:04:18.036Z,5.70
2023-03-22T01:06:47.703Z,6.17
2023-03-22T01:09:15.820Z,5.93
2023-03-22T01:11:44.195Z,4.93
2023-03-22T01:14:13.751Z,5.80
2023-03-22T01:16:41.992Z,5.30
2023-03-22T01:19:10.312Z,5.83
2023-03-22T01:21:38.433Z,5.57
2023-03-22T01:24:08.722Z,5.27
2023-03-22T01:26:37.740Z,6.40
2023-03-22T01:29:06.025Z,6.37
2023-03-22T01:31:34.194Z,5.83
2023-03-22T01:34:02.279Z,5.97
2023-03-22T01:36:30.595Z,4.93
2023-03-22T01:38:59.401Z,5.50
2023-03-22T01:41:29.114Z,5.37
2023-03-22T01:44:14.873Z,5.70
2023-03-22T01:46:44.329Z,5.00
2023-03-22T01:49:16.195Z,5.00
2023-03-22T01:51:45.869Z,4.83
2023-03-22T01:54:18.170Z,4.63
2023-03-22T01:56:48.206Z,4.40
2023-03-22T01:59:16.727Z,5.20
2023-03-22T02:01:47.076Z,4.67
2023-03-22T02:04:20.074Z,4.53
2023-03-22T02:06:49.347Z,4.87
2023-03-22T02:09:22.086Z,4.83
2023-03-22T02:12:03.211Z,4.30
2023-03-22T02:14:59.063Z,4.23
2023-03-22T02:17:35.404Z,5.30
2023-03-22T02:20:55.663Z,4.47
2023-03-22T02:23:59.619Z,3.53
2023-03-22T02:26:59.298Z,2.67
2023-03-22T02:29:37.955Z,2.30
2023-03-22T02:32:31.834Z,2.03
2023-03-22T02:35:33.522Z,2.27
2023-03-22T02:38:36.833Z,2.20
2023-03-22T02:41:13.277Z,2.00
2023-03-22T02:43:52.810Z,2.20
2023-03-22T02:46:26.085Z,2.00
2023-03-22T02:49:01.589Z,1.90
2023-03-22T02:51:37.753Z,2.43
2023-03-22T02:54:11.431Z,2.47
2023-03-22T02:56:45.801Z,2.37
2023-03-22T02:59:15.329Z,2.50
2023-03-22T03:01:47.201Z,3.10
2023-03-22T03:04:19.031Z,2.80
2023-03-22T03:06:50.107Z,2.87
2023-03-22T03:09:20.271Z,2.80
2023-03-22T03:11:51.648Z,2.50
2023-03-22T03:14:28.024Z,2.27
2023-03-22T03:17:09.548Z,2.13
2023-03-22T03:19:46.398Z,2.03
2023-03-22T03:22:35.964Z,2.50
2023-03-22T03:25:10.514Z,2.13
2023-03-22T03:27:44.378Z,2.27
2023-03-22T03:30:17.421Z,1.90
2023-03-22T03:32:49.067Z,2.30
2023-03-22T03:35:23.414Z,2.57
2023-03-22T03:37:54.785Z,2.70
2023-03-22T03:40:28.637Z,2.70
2023-03-22T03:43:02.952Z,2.80
2023-03-22T03:45:31.546Z,2.47
2023-03-22T03:48:02.316Z,2.50
2023-03-22T03:50:30.953Z,2.57
2023-03-22T03:52:59.709Z,2.67
2023-03-22T03:55:29.924Z,2.13
2023-03-22T03:57:59.486Z,2.10
2023-03-22T04:00:27.704Z,2.37
2023-03-22T04:02:55.926Z,2.10
2023-03-22T04:05:23.982Z,2.00
2023-03-22T04:07:52.211Z,1.83
2023-03-22T04:10:20.418Z,1.90
2023-03-22T04:12:48.583Z,2.13
2023-03-22T04:15:18.364Z,2.13
2023-03-22T04:17:47.029Z,2.10
2023-03-22T04:20:15.885Z,1.97
2023-03-22T04:22:44.995Z,1.83
2023-03-22T04:25:15.010Z,2.10
2023-03-22T04:27:44.102Z,2.20
2023-03-22T04:30:18.897Z,2.50
2023-03-22T04:32:49.672Z,2.30
2023-03-22T04:35:18.069Z,2.30
2023-03-22T04:37:46.254Z,2.50
2023-03-22T04:40:17.419Z,2.40
2023-03-22T04:42:46.096Z,2.63
2023-03-22T04:45:15.311Z,2.60
2023-03-22T04:47:43.582Z,2.77
2023-03-22T04:50:13.372Z,3.27
2023-03-22T04:52:41.614Z,3.10
2023-03-22T04:55:10.421Z,3.57
2023-03-22T04:57:38.646Z,4.10
2023-03-22T05:00:09.972Z,3.67
2023-03-22T05:02:41.460Z,4.33
2023-03-22T05:05:10.119Z,4.53
2023-03-22T05:07:40.341Z,5.23
2023-03-22T05:10:09.555Z,4.33
2023-03-22T05:12:37.821Z,3.67
2023-03-22T05:15:06.886Z,4.10
2023-03-22T05:17:35.008Z,2.90
2023-03-22T05:20:10.097Z,3.60
2023-03-22T05:22:40.967Z,3.10
2023-03-22T05:25:11.299Z,2.93
2023-03-22T05:27:39.542Z,3.30
2023-03-22T05:30:10.002Z,3.37
2023-03-22T05:32:43.074Z,3.73
2023-03-22T05:35:11.639Z,4.03
2023-03-22T05:37:41.515Z,4.73
2023-03-22T05:40:11.086Z,5.17
2023-03-22T05:42:39.251Z,5.70
2023-03-22T05:45:08.711Z,4.53
2023-03-22T05:47:39.341Z,4.00
2023-03-22T05:50:09.181Z,3.73
2023-03-22T05:52:37.381Z,3.97
2023-03-22T05:55:08.024Z,4.03
2023-03-22T05:57:36.392Z,4.10
2023-03-22T06:00:09.789Z,3.40
2023-03-22T06:02:38.045Z,3.63
2023-03-22T06:05:06.840Z,3.00
2023-03-22T06:07:35.058Z,4.00
2023-03-22T06:10:04.135Z,3.80
2023-03-22T06:12:34.081Z,4.00
2023-03-22T06:15:02.543Z,4.43
2023-03-22T06:17:30.796Z,4.43
2023-03-22T06:19:58.987Z,3.57
2023-03-22T06:22:27.269Z,3.10
2023-03-22T06:24:55.399Z,3.13
2023-03-22T06:27:23.603Z,3.13
2023-03-22T06:29:55.045Z,2.57
2023-03-22T06:32:23.695Z,2.60
2023-03-22T06:34:51.952Z,2.50
2023-03-22T06:37:20.332Z,2.23
2023-03-22T06:39:48.586Z,2.37
2023-03-22T06:42:16.796Z,2.30
2023-03-22T06:44:45.150Z,2.27
2023-03-22T06:47:14.853Z,2.00
2023-03-22T06:49:43.062Z,1.70
2023-03-22T06:52:11.354Z,1.90
2023-03-22T06:54:39.678Z,1.80
2023-03-22T06:57:07.918Z,1.93
2023-03-22T06:59:36.300Z,2.03
2023-03-22T07:02:04.988Z,1.90
2023-03-22T07:04:34.576Z,2.23
2023-03-22T07:07:03.365Z,2.50
2023-03-22T07:09:31.537Z,2.83
2023-03-22T07:11:59.828Z,2.87
2023-03-22T07:14:27.953Z,3.20
2023-03-22T07:16:56.892Z,3.90
2023-03-22T07:19:25.001Z,4.53
2023-03-22T07:21:54.716Z,4.67
2023-03-22T07:24:22.838Z,5.47
2023-03-22T07:26:52.405Z,5.50
2023-03-22T07:29:20.609Z,9.67
2023-03-22T07:31:48.798Z,11.70
2023-03-22T07:34:17.638Z,4.33
2023-03-22T07:36:45.766Z,4.00
2023-03-22T07:39:15.349Z,4.70
2023-03-22T07:41:43.568Z,5.40
2023-03-22T07:44:18.024Z,6.33
2023-03-22T07:46:46.674Z,9.17
2023-03-22T07:49:15.568Z,10.50
2023-03-22T07:51:43.744Z,10.53
2023-03-22T07:54:17.724Z,10.50
2023-03-22T07:56:52.461Z,12.30
2023-03-22T07:59:20.939Z,11.80
2023-03-22T08:01:49.138Z,11.07
2023-03-22T08:04:17.253Z,10.50
2023-03-22T08:06:46.526Z,11.40
2023-03-22T08:09:14.878Z,9.70
2023-03-22T08:11:43.097Z,8.67
2023-03-22T08:14:12.634Z,9.07
2023-03-22T08:16:41.651Z,7.87
2023-03-22T08:19:09.918Z,7.77
2023-03-22T08:21:38.817Z,9.00
2023-03-22T08:24:07.442Z,12.20
2023-03-22T08:26:36.282Z,12.87
2023-03-22T08:29:04.587Z,12.50
2023-03-22T08:31:34.236Z,13.87
2023-03-22T08:34:02.660Z,15.43
2023-03-22T08:36:31.121Z,15.67
2023-03-22T08:38:59.337Z,15.67
2023-03-22T08:41:27.593Z,16.27
2023-03-22T08:43:56.498Z,15.00
2023-03-22T08:46:24.762Z,25.73
2023-03-22T08:48:54.581Z,15.73
2023-03-22T08:51:24.183Z,15.33
2023-03-22T08:53:52.751Z,15.50
2023-03-22T08:56:22.700Z,16.30
2023-03-22T08:58:51.006Z,18.17
2023-03-22T09:01:21.066Z,18.83
2023-03-22T09:03:49.391Z,19.17
2023-03-22T09:06:18.955Z,19.60
2023-03-22T09:08:47.242Z,18.63
2023-03-22T09:11:17.693Z,20.23
2023-03-22T09:13:46.221Z,19.70
2023-03-22T09:16:14.804Z,21.03
2023-03-22T09:18:43.243Z,21.43
2023-03-22T09:21:12.334Z,21.67
2023-03-22T09:23:42.472Z,20.57
2023-03-22T09:26:11.130Z,22.73
2023-03-22T09:28:39.332Z,20.80
2023-03-22T09:31:10.211Z,22.70
2023-03-22T09:33:41.397Z,23.33
2023-03-22T09:36:11.955Z,23.70
2023-03-22T09:38:42.215Z,24.57
2023-03-22T09:41:16.305Z,23.23
2023-03-22T09:43:47.852Z,23.10
2023-03-22T09:46:18.199Z,22.83
2023-03-22T09:48:49.485Z,23.63
2023-03-22T09:51:34.459Z,22.17
2023-03-22T09:54:04.309Z,22.67
2023-03-22T09:56:33.956Z,22.03
2023-03-22T09:59:09.616Z,21.67
2023-03-22T10:01:46.096Z,49.17
2023-03-22T10:04:31.236Z,24.23
2023-03-22T10:07:08.215Z,24.33
2023-03-22T10:09:46.672Z,22.27
2023-03-22T10:12:21.848Z,22.07
2023-03-22T10:14:52.765Z,22.50
2023-03-22T10:17:26.500Z,21.63
2023-03-22T10:19:59.114Z,21.40
2023-03-22T10:22:31.957Z,19.73
2023-03-22T10:25:02.494Z,21.47
2023-03-22T10:27:32.671Z,19.90
2023-03-22T10:30:05.230Z,18.53
2023-03-22T10:32:54.760Z,20.60
2023-03-22T10:35:25.372Z,19.80
2023-03-22T10:37:56.073Z,19.77
2023-03-22T10:40:29.758Z,20.40
2023-03-22T10:43:00.860Z,20.57
2023-03-22T10:45:30.317Z,19.50
2023-03-22T10:48:02.903Z,18.93
2023-03-22T10:50:34.251Z,18.03
2023-03-22T10:53:06.490Z,15.97
2023-03-22T10:55:41.208Z,17.77
2023-03-22T10:58:15.051Z,18.27
2023-03-22T11:00:47.516Z,19.10
2023-03-22T11:03:30.227Z,15.83
2023-03-22T11:06:03.434Z,18.63
2023-03-22T11:08:40.410Z,17.83
2023-03-22T11:11:17.984Z,18.83
2023-03-22T11:13:52.824Z,16.77
2023-03-22T11:16:21.579Z,16.80
2023-03-22T11:18:50.041Z,16.83
2023-03-22T11:21:21.121Z,17.33
2023-03-22T11:23:56.591Z,18.47
2023-03-22T11:26:34.644Z,16.60
2023-03-22T11:29:13.023Z,17.60
2023-03-22T11:31:59.090Z,16.97
2023-03-22T11:34:29.871Z,15.77
2023-03-22T11:37:01.759Z,17.37
2023-03-22T11:39:31.126Z,15.40
2023-03-22T11:42:04.020Z,20.40
2023-03-22T11:44:38.068Z,26.53
2023-03-22T11:47:09.682Z,15.10
2023-03-22T11:49:43.891Z,14.77
2023-03-22T11:52:16.696Z,15.67
2023-03-22T11:54:47.005Z,14.20
2023-03-22T11:57:19.478Z,13.27
2023-03-22T11:59:50.578Z,12.20
2023-03-22T12:02:26.723Z,12.03
2023-03-22T12:05:01.757Z,11.40
2023-03-22T12:07:32.013Z,13.63
2023-03-22T12:10:04.546Z,12.47
2023-03-22T12:12:38.495Z,13.50
2023-03-22T12:15:09.484Z,13.73
2023-03-22T12:17:41.953Z,12.40
2023-03-22T12:20:21.109Z,13.33
2023-03-22T12:22:53.428Z,12.87
2023-03-22T12:25:24.715Z,12.50
2023-03-22T12:27:57.474Z,11.70
2023-03-22T12:30:28.180Z,13.57
2023-03-22T12:33:02.897Z,14.63
2023-03-22T12:35:32.964Z,24.30
2023-03-22T12:38:06.859Z,20.80
2023-03-22T12:40:39.727Z,15.77
2023-03-22T12:43:16.489Z,14.97
2023-03-22T12:45:49.285Z,14.30
2023-03-22T12:48:21.386Z,14.80
2023-03-22T12:50:54.084Z,12.33
2023-03-22T12:53:27.661Z,16.47
2023-03-22T12:55:58.422Z,17.20
2023-03-22T12:58:28.894Z,14.93
2023-03-22T13:01:00.420Z,16.87
2023-03-22T13:03:31.197Z,15.17
2023-03-22T13:06:06.066Z,16.47
2023-03-22T13:09:04.943Z,16.73
2023-03-22T13:11:33.130Z,15.67
2023-03-22T13:14:02.915Z,16.07
2023-03-22T13:16:50.590Z,14.73
2023-03-22T13:19:29.557Z,15.93
2023-03-22T13:22:19.093Z,14.73
2023-03-22T13:25:01.836Z,17.47
2023-03-22T13:27:43.694Z,17.70
2023-03-22T13:30:24.551Z,18.87
2023-03-22T13:32:56.554Z,17.57
2023-03-22T13:35:28.777Z,17.30
2023-03-22T13:38:03.281Z,16.13
2023-03-22T13:40:37.703Z,17.67
2023-03-22T13:43:30.855Z,15.97
2023-03-22T13:46:06.853Z,18.40
2023-03-22T13:48:44.807Z,17.80
2023-03-22T13:51:17.739Z,14.63
2023-03-22T13:53:57.798Z,15.47
2023-03-22T13:56:34.568Z,18.07
2023-03-22T13:59:05.188Z,19.40
2023-03-22T14:01:38.077Z,16.67
2023-03-22T14:04:12.343Z,16.87
2023-03-22T14:06:50.113Z,18.23
2023-03-22T14:09:26.710Z,20.17
2023-03-22T14:12:01.550Z,20.67
2023-03-22T14:14:33.979Z,18.70
2023-03-22T14:17:09.415Z,20.80
2023-03-22T14:19:37.813Z,20.67
